createdAt,value
2022-07-26T00:01:31.938Z,10.52
2022-07-26T00:04:01.700Z,11.10
2022-07-26T00:06:31.346Z,11.30
2022-07-26T00:09:00.901Z,11.80
2022-07-26T00:11:33.759Z,11.82
2022-07-26T00:14:08.675Z,9.48
2022-07-26T00:16:38.890Z,9.20
2022-07-26T00:19:09.943Z,11.80
2022-07-26T00:21:40.680Z,16.33
2022-07-26T00:24:10.918Z,11.35
2022-07-26T00:26:40.383Z,12.27
2022-07-26T00:29:09.906Z,11.23
2022-07-26T00:31:39.470Z,11.87
2022-07-26T00:34:08.889Z,12.93
2022-07-26T00:36:39.206Z,15.52
2022-07-26T00:39:11.574Z,13.80
2022-07-26T00:41:41.099Z,10.50
2022-07-26T00:44:10.617Z,11.47
2022-07-26T00:46:40.085Z,11.02
2022-07-26T00:49:09.901Z,12.57
2022-07-26T00:51:40.104Z,12.07
2022-07-26T00:54:10.617Z,11.38
2022-07-26T00:56:40.642Z,11.03
2022-07-26T00:59:10.469Z,10.18
2022-07-26T01:01:40.071Z,11.38
2022-07-26T01:04:09.757Z,14.40
2022-07-26T01:06:39.457Z,11.60
2022-07-26T01:09:08.856Z,15.10
2022-07-26T01:11:38.113Z,11.85
2022-07-26T01:14:07.705Z,13.50
2022-07-26T01:16:37.279Z,12.80
2022-07-26T01:19:06.664Z,12.20
2022-07-26T01:21:36.706Z,12.27
2022-07-26T01:24:06.440Z,12.25
2022-07-26T01:26:35.940Z,11.98
2022-07-26T01:29:05.339Z,12.85
2022-07-26T01:31:34.702Z,12.35
2022-07-26T01:34:04.196Z,12.40
2022-07-26T01:36:33.471Z,13.02
2022-07-26T01:39:02.846Z,12.85
2022-07-26T01:41:38.388Z,12.80
2022-07-26T01:44:08.884Z,10.82
2022-07-26T01:46:38.444Z,10.60
2022-07-26T01:49:09.168Z,12.40
2022-07-26T01:51:38.789Z,14.73
2022-07-26T01:54:08.419Z,13.38
2022-07-26T01:56:37.978Z,13.02
2022-07-26T01:59:07.724Z,13.80
2022-07-26T02:01:39.501Z,12.30
2022-07-26T02:04:30.173Z,10.75
2022-07-26T02:06:59.748Z,11.07
2022-07-26T02:09:31.541Z,11.57
2022-07-26T02:12:07.763Z,12.43
2022-07-26T02:14:37.147Z,14.18
2022-07-26T02:17:06.889Z,10.98
2022-07-26T02:19:36.189Z,10.15
2022-07-26T02:22:05.694Z,14.30
2022-07-26T02:24:34.973Z,12.40
2022-07-26T02:27:05.417Z,12.98
2022-07-26T02:29:34.761Z,12.32
2022-07-26T02:32:04.076Z,11.80
2022-07-26T02:34:34.043Z,11.18
2022-07-26T02:37:03.839Z,11.80
2022-07-26T02:39:33.205Z,12.77
2022-07-26T02:42:04.277Z,13.25
2022-07-26T02:44:35.342Z,12.65
2022-07-26T02:47:05.081Z,12.95
2022-07-26T02:49:34.335Z,12.63
2022-07-26T02:52:03.627Z,12.80
2022-07-26T02:54:32.920Z,11.35
2022-07-26T02:57:02.172Z,11.23
2022-07-26T02:59:31.417Z,11.57
2022-07-26T03:02:01.127Z,12.87
2022-07-26T03:04:30.546Z,12.77
2022-07-26T03:06:59.788Z,12.07
2022-07-26T03:09:29.081Z,11.30
2022-07-26T03:11:58.382Z,11.50
2022-07-26T03:14:27.619Z,12.80
2022-07-26T03:16:56.933Z,13.13
2022-07-26T03:19:26.225Z,12.52
2022-07-26T03:21:55.451Z,14.35
2022-07-26T03:24:24.703Z,11.80
2022-07-26T03:26:54.042Z,13.47
2022-07-26T03:29:23.321Z,11.32
2022-07-26T03:31:52.630Z,11.50
2022-07-26T03:34:22.339Z,12.00
2022-07-26T03:36:51.636Z,11.20
2022-07-26T03:39:20.940Z,13.27
2022-07-26T03:41:50.168Z,13.15
2022-07-26T03:44:19.447Z,11.07
2022-07-26T03:46:48.767Z,9.55
2022-07-26T03:49:18.351Z,15.00
2022-07-26T03:51:47.940Z,11.17
2022-07-26T03:54:17.258Z,14.02
2022-07-26T03:56:43.979Z,14.43
2022-07-26T03:59:14.480Z,13.27
2022-07-26T04:01:44.686Z,12.27
2022-07-26T04:04:15.945Z,13.97
2022-07-26T04:06:48.604Z,13.02
2022-07-26T04:09:18.252Z,13.00
2022-07-26T04:11:48.765Z,14.50
2022-07-26T04:14:18.020Z,12.30
2022-07-26T04:16:47.347Z,13.97
2022-07-26T04:19:16.712Z,13.60
2022-07-26T04:21:45.950Z,11.05
2022-07-26T04:24:15.232Z,13.52
2022-07-26T04:26:44.515Z,11.98
2022-07-26T04:29:15.249Z,14.77
2022-07-26T04:31:44.578Z,11.80
2022-07-26T04:34:13.837Z,13.48
2022-07-26T04:36:43.178Z,12.23
2022-07-26T04:39:12.536Z,10.50
2022-07-26T04:41:41.966Z,9.57
2022-07-26T04:44:11.533Z,11.88
2022-07-26T04:46:44.918Z,10.07
2022-07-26T04:49:14.673Z,9.27
2022-07-26T04:51:43.995Z,9.43
2022-07-26T04:54:15.659Z,8.60
2022-07-26T04:56:44.908Z,14.68
2022-07-26T04:59:18.462Z,11.27
2022-07-26T05:01:50.726Z,9.90
2022-07-26T05:04:20.033Z,8.32
2022-07-26T05:06:49.265Z,13.10
2022-07-26T05:09:18.528Z,9.18
2022-07-26T05:11:47.780Z,10.23
2022-07-26T05:14:17.066Z,12.00
2022-07-26T05:16:47.185Z,11.43
2022-07-26T05:19:16.969Z,11.77
2022-07-26T05:21:46.359Z,11.68
2022-07-26T05:24:15.659Z,8.75
2022-07-26T05:26:45.045Z,7.78
2022-07-26T05:29:14.321Z,7.25
2022-07-26T05:31:43.643Z,8.83
2022-07-26T05:34:13.868Z,8.80
2022-07-26T05:36:43.144Z,12.52
2022-07-26T05:39:15.919Z,7.80
2022-07-26T05:41:45.479Z,8.63
2022-07-26T05:44:15.408Z,9.30
2022-07-26T05:46:44.683Z,6.20
2022-07-26T05:49:14.117Z,8.73
2022-07-26T05:51:43.399Z,8.55
2022-07-26T05:54:12.710Z,8.13
2022-07-26T05:56:42.033Z,7.83
2022-07-26T05:59:11.276Z,7.57
2022-07-26T06:01:40.623Z,7.85
2022-07-26T06:04:10.963Z,6.25
2022-07-26T06:06:40.440Z,8.45
2022-07-26T06:09:09.727Z,7.47
2022-07-26T06:11:38.998Z,9.85
2022-07-26T06:14:08.545Z,7.45
2022-07-26T06:16:38.214Z,8.23
2022-07-26T06:19:07.466Z,7.03
2022-07-26T06:21:36.711Z,8.17
2022-07-26T06:24:06.333Z,7.53
2022-07-26T06:26:35.901Z,10.90
2022-07-26T06:29:05.270Z,8.55
2022-07-26T06:31:34.663Z,6.47
2022-07-26T06:34:04.174Z,6.77
2022-07-26T06:36:33.398Z,7.30
2022-07-26T06:39:02.760Z,7.68
2022-07-26T06:41:32.088Z,7.95
2022-07-26T06:44:01.349Z,6.03
2022-07-26T06:46:30.714Z,5.37
2022-07-26T06:49:00.052Z,5.40
2022-07-26T06:51:29.461Z,8.57
2022-07-26T06:53:58.726Z,11.25
2022-07-26T06:56:30.298Z,7.35
2022-07-26T06:58:59.572Z,8.90
2022-07-26T07:01:55.551Z,7.45
2022-07-26T07:04:18.529Z,9.00
2022-07-26T07:06:47.787Z,9.25
2022-07-26T07:09:18.902Z,9.32
2022-07-26T07:11:49.859Z,13.37
2022-07-26T07:14:25.786Z,6.55
2022-07-26T07:16:55.318Z,5.00
2022-07-26T07:19:24.680Z,5.57
2022-07-26T07:21:54.020Z,7.65
2022-07-26T07:24:23.864Z,7.07
2022-07-26T07:26:53.396Z,5.72
2022-07-26T07:29:24.533Z,5.07
2022-07-26T07:31:53.807Z,6.07
2022-07-26T07:34:26.544Z,5.70
2022-07-26T07:36:56.700Z,4.50
2022-07-26T07:39:34.434Z,9.98
2022-07-26T07:42:04.128Z,4.78
2022-07-26T07:44:33.380Z,3.97
2022-07-26T07:47:02.948Z,4.15
2022-07-26T07:49:32.660Z,5.30
2022-07-26T07:52:02.017Z,4.13
2022-07-26T07:54:32.153Z,6.93
2022-07-26T07:57:01.782Z,6.05
2022-07-26T07:59:31.411Z,9.20
2022-07-26T08:02:00.633Z,5.27
2022-07-26T08:04:30.011Z,3.33
2022-07-26T08:06:59.314Z,5.32
2022-07-26T08:09:28.855Z,5.32
2022-07-26T08:11:58.337Z,4.07
2022-07-26T08:14:28.019Z,5.70
2022-07-26T08:16:57.919Z,4.00
2022-07-26T08:19:30.525Z,4.15
2022-07-26T08:22:11.371Z,3.13
2022-07-26T08:24:41.098Z,5.82
2022-07-26T08:27:10.402Z,7.37
2022-07-26T08:29:39.646Z,7.45
2022-07-26T08:32:09.123Z,3.75
2022-07-26T08:34:38.411Z,4.78
2022-07-26T08:37:17.110Z,4.53
2022-07-26T08:39:47.124Z,7.17
2022-07-26T08:42:22.769Z,5.22
2022-07-26T08:44:53.374Z,5.47
2022-07-26T08:47:37.843Z,5.05
2022-07-26T08:50:12.344Z,4.20
2022-07-26T08:52:43.718Z,4.43
2022-07-26T08:55:13.810Z,5.30
2022-07-26T08:57:43.081Z,4.43
2022-07-26T09:00:24.955Z,5.28
2022-07-26T09:02:55.845Z,4.00
2022-07-26T09:05:40.068Z,4.00
2022-07-26T09:08:27.134Z,5.93
2022-07-26T09:10:56.373Z,3.63
2022-07-26T09:13:25.941Z,4.65
2022-07-26T09:16:13.869Z,5.28
2022-07-26T09:18:43.238Z,6.67
2022-07-26T09:21:31.952Z,3.97
2022-07-26T09:24:02.017Z,6.30
2022-07-26T09:26:31.240Z,4.25
2022-07-26T09:29:10.431Z,6.20
2022-07-26T09:31:44.149Z,3.67
2022-07-26T09:34:13.715Z,2.88
2022-07-26T09:36:56.796Z,4.80
2022-07-26T09:39:33.504Z,3.58
2022-07-26T09:42:28.502Z,2.63
2022-07-26T09:44:59.298Z,2.43
2022-07-26T09:47:38.846Z,5.63
2022-07-26T09:50:19.827Z,4.40
2022-07-26T09:53:11.959Z,5.97
2022-07-26T09:55:47.163Z,4.55
2022-07-26T09:58:19.182Z,5.30
2022-07-26T10:00:48.611Z,3.05
2022-07-26T10:03:18.121Z,3.80
2022-07-26T10:05:47.645Z,3.38
2022-07-26T10:08:17.141Z,5.65
2022-07-26T10:10:49.750Z,4.57
2022-07-26T10:13:19.423Z,3.38
2022-07-26T10:15:51.405Z,2.85
2022-07-26T10:18:40.739Z,4.90
2022-07-26T10:21:30.125Z,3.70
2022-07-26T10:24:03.963Z,3.40
2022-07-26T10:26:35.824Z,3.53
2022-07-26T10:29:26.854Z,6.30
2022-07-26T10:31:58.883Z,7.75
2022-07-26T10:34:42.249Z,3.90
2022-07-26T10:37:23.708Z,1.70
2022-07-26T10:40:17.425Z,3.08
2022-07-26T10:42:47.786Z,5.38
2022-07-26T10:45:25.111Z,3.88
2022-07-26T10:48:12.405Z,2.55
2022-07-26T10:50:42.657Z,3.93
2022-07-26T10:53:13.547Z,3.10
2022-07-26T10:56:01.562Z,4.68
2022-07-26T10:58:30.837Z,2.15
2022-07-26T11:01:06.875Z,2.40
2022-07-26T11:03:44.426Z,3.97
2022-07-26T11:06:21.723Z,2.75
2022-07-26T11:08:51.562Z,2.92
2022-07-26T11:11:34.001Z,6.40
2022-07-26T11:14:10.668Z,2.88
2022-07-26T11:16:51.133Z,3.30
2022-07-26T11:19:23.444Z,3.78
2022-07-26T11:21:58.775Z,2.67
2022-07-26T11:24:28.221Z,2.42
2022-07-26T11:26:57.947Z,2.17
2022-07-26T11:29:38.009Z,2.87
2022-07-26T11:32:14.853Z,4.57
2022-07-26T11:34:46.627Z,3.35
2022-07-26T11:37:16.390Z,2.78
2022-07-26T11:39:45.621Z,5.00
2022-07-26T11:42:17.116Z,3.67
2022-07-26T11:44:48.374Z,4.32
2022-07-26T11:47:27.043Z,3.25
2022-07-26T11:52:46.305Z,3.80
2022-07-26T11:55:15.683Z,2.10
2022-07-26T11:57:44.955Z,2.50
2022-07-26T12:00:15.285Z,3.22
2022-07-26T12:02:44.794Z,4.50
2022-07-26T12:05:22.583Z,3.35
2022-07-26T12:08:04.551Z,2.30
2022-07-26T12:10:34.229Z,6.18
2022-07-26T12:13:14.724Z,2.22
2022-07-26T12:15:55.579Z,3.67
2022-07-26T12:18:29.741Z,4.93
2022-07-26T12:21:04.459Z,4.60
2022-07-26T12:23:49.990Z,2.40
2022-07-26T12:26:32.160Z,3.97
2022-07-26T12:29:22.144Z,4.82
2022-07-26T12:32:14.209Z,2.38
2022-07-26T12:34:45.040Z,2.43
2022-07-26T12:37:19.860Z,2.92
2022-07-26T12:40:04.397Z,2.40
2022-07-26T12:42:35.564Z,6.25
2022-07-26T12:45:06.555Z,2.17
2022-07-26T12:47:36.151Z,2.33
2022-07-26T12:50:07.722Z,3.00
2022-07-26T12:52:37.326Z,3.05
2022-07-26T12:55:08.468Z,4.80
2022-07-26T12:57:38.010Z,2.35
2022-07-26T13:00:16.345Z,2.10
2022-07-26T13:02:46.405Z,2.67
2022-07-26T13:05:16.276Z,3.05
2022-07-26T13:07:45.653Z,2.65
2022-07-26T13:10:33.504Z,2.20
2022-07-26T13:13:03.878Z,4.20
2022-07-26T13:15:36.023Z,4.22
2022-07-26T13:18:07.961Z,3.00
2022-07-26T13:20:39.734Z,2.33
2022-07-26T13:23:13.861Z,2.42
2022-07-26T13:25:45.211Z,3.17
2022-07-26T13:28:15.879Z,5.80
2022-07-26T13:30:45.400Z,3.38
2022-07-26T13:33:16.743Z,2.63
2022-07-26T13:35:50.387Z,4.15
2022-07-26T13:38:20.407Z,5.13
2022-07-26T13:40:50.529Z,3.60
2022-07-26T13:43:20.038Z,4.45
2022-07-26T13:45:49.293Z,5.38
2022-07-26T13:48:18.613Z,4.68
2022-07-26T13:50:47.867Z,4.30
2022-07-26T13:53:17.242Z,2.70
2022-07-26T13:55:46.601Z,6.78
2022-07-26T13:58:15.961Z,3.47
2022-07-26T14:00:45.418Z,4.40
2022-07-26T14:03:14.709Z,2.43
2022-07-26T14:05:44.008Z,6.75
2022-07-26T14:08:13.224Z,3.90
2022-07-26T14:10:43.286Z,6.43
2022-07-26T14:13:12.715Z,6.30
2022-07-26T14:15:41.986Z,2.27
2022-07-26T14:18:11.233Z,7.03
2022-07-26T14:20:40.567Z,3.92
2022-07-26T14:23:09.918Z,3.60
2022-07-26T14:25:39.359Z,3.75
2022-07-26T14:28:08.741Z,3.77
2022-07-26T14:30:38.397Z,3.67
2022-07-26T14:33:07.638Z,5.72
2022-07-26T14:35:36.911Z,3.15
2022-07-26T14:38:06.195Z,3.63
2022-07-26T14:40:35.534Z,4.43
2022-07-26T14:43:04.938Z,8.45
2022-07-26T14:45:34.326Z,2.53
2022-07-26T14:48:03.627Z,2.80
2022-07-26T14:50:53.066Z,3.50
2022-07-26T14:53:22.451Z,2.30
2022-07-26T14:55:51.748Z,1.90
2022-07-26T14:58:21.469Z,2.90
2022-07-26T15:00:50.873Z,4.32
2022-07-26T15:03:20.213Z,6.93
2022-07-26T15:05:49.473Z,2.97
2022-07-26T15:08:18.813Z,3.55
2022-07-26T15:10:48.139Z,6.57
2022-07-26T15:13:17.593Z,4.10
2022-07-26T15:15:46.889Z,6.40
2022-07-26T15:18:16.198Z,2.23
2022-07-26T15:20:45.469Z,4.78
2022-07-26T15:23:16.304Z,7.85
2022-07-26T15:25:48.634Z,3.67
2022-07-26T15:28:18.174Z,4.55
2022-07-26T15:30:47.580Z,3.57
2022-07-26T15:33:18.257Z,3.53
2022-07-26T15:35:47.607Z,3.65
2022-07-26T15:38:16.964Z,4.53
2022-07-26T15:40:46.288Z,3.90
2022-07-26T15:43:23.921Z,3.20
2022-07-26T15:46:12.771Z,7.00
2022-07-26T15:48:43.560Z,3.75
2022-07-26T15:51:12.934Z,3.95
2022-07-26T15:53:46.274Z,5.70
2022-07-26T15:56:16.171Z,3.87
2022-07-26T15:58:45.643Z,5.60
2022-07-26T16:01:16.478Z,6.68
2022-07-26T16:03:45.804Z,3.88
2022-07-26T16:06:15.203Z,5.93
2022-07-26T16:09:13.489Z,4.63
2022-07-26T16:11:34.173Z,5.07
2022-07-26T16:14:03.653Z,4.35
2022-07-26T16:16:33.502Z,4.35
2022-07-26T16:19:02.838Z,4.53
2022-07-26T16:21:32.115Z,5.03
2022-07-26T16:24:06.412Z,6.70
2022-07-26T16:26:36.511Z,7.03
2022-07-26T16:29:06.399Z,5.85
2022-07-26T16:31:35.764Z,6.70
2022-07-26T16:34:05.121Z,5.43
2022-07-26T16:36:34.865Z,4.05
2022-07-26T16:39:04.137Z,6.75
2022-07-26T16:41:33.485Z,5.53
2022-07-26T16:44:03.221Z,6.10
2022-07-26T16:46:32.654Z,6.53
2022-07-26T16:49:01.981Z,5.25
2022-07-26T16:51:33.985Z,7.78
2022-07-26T16:54:03.271Z,4.40
2022-07-26T16:56:32.529Z,5.95
2022-07-26T16:59:02.039Z,6.17
2022-07-26T17:01:31.293Z,5.97
2022-07-26T17:04:00.520Z,4.55
2022-07-26T17:06:29.896Z,8.43
2022-07-26T17:08:59.194Z,4.68
2022-07-26T17:11:28.459Z,5.50
2022-07-26T17:13:58.002Z,5.72
2022-07-26T17:16:27.463Z,5.25
2022-07-26T17:18:57.823Z,6.05
2022-07-26T17:21:27.187Z,5.10
2022-07-26T17:23:56.399Z,7.80
2022-07-26T17:26:25.764Z,4.28
2022-07-26T17:28:55.083Z,7.85
2022-07-26T17:31:24.719Z,7.35
2022-07-26T17:33:53.964Z,6.25
2022-07-26T17:36:32.249Z,5.07
2022-07-26T17:39:02.514Z,4.22
2022-07-26T17:41:33.106Z,5.85
2022-07-26T17:44:04.871Z,4.68
2022-07-26T17:46:35.052Z,4.78
2022-07-26T17:49:04.588Z,4.53
2022-07-26T17:51:33.931Z,4.78
2022-07-26T17:54:03.318Z,6.65
2022-07-26T17:56:32.582Z,5.82
2022-07-26T17:59:01.878Z,6.95
2022-07-26T18:01:31.170Z,4.60
2022-07-26T18:04:00.524Z,5.65
2022-07-26T18:06:29.839Z,5.07
2022-07-26T18:08:59.424Z,5.43
2022-07-26T18:11:28.743Z,4.50
2022-07-26T18:13:58.007Z,4.83
2022-07-26T18:16:27.487Z,4.90
2022-07-26T18:18:56.876Z,5.35
2022-07-26T18:21:26.111Z,5.13
2022-07-26T18:24:15.828Z,5.70
2022-07-26T18:26:44.855Z,5.90
2022-07-26T18:29:15.278Z,6.82
2022-07-26T18:31:44.602Z,10.63
2022-07-26T18:34:13.977Z,3.90
2022-07-26T18:36:43.277Z,6.70
2022-07-26T18:39:12.831Z,6.80
2022-07-26T18:41:42.314Z,5.30
2022-07-26T18:44:12.490Z,6.57
2022-07-26T18:46:41.864Z,8.43
2022-07-26T18:49:19.710Z,5.00
2022-07-26T18:51:50.490Z,5.37
2022-07-26T18:54:22.051Z,3.67
2022-07-26T18:56:51.300Z,8.65
2022-07-26T18:59:20.628Z,6.95
2022-07-26T19:01:49.972Z,4.57
2022-07-26T19:04:19.677Z,4.93
2022-07-26T19:06:51.179Z,4.72
2022-07-26T19:09:20.574Z,5.00
2022-07-26T19:11:49.941Z,6.18
2022-07-26T19:14:19.170Z,6.30
2022-07-26T19:16:50.108Z,6.90
2022-07-26T19:19:19.341Z,6.43
2022-07-26T19:21:49.429Z,4.10
2022-07-26T19:24:18.706Z,6.55
2022-07-26T19:26:48.328Z,3.72
2022-07-26T19:29:18.465Z,5.27
2022-07-26T19:31:48.372Z,7.90
2022-07-26T19:34:17.711Z,6.05
2022-07-26T19:36:47.030Z,7.35
2022-07-26T19:39:16.738Z,5.32
2022-07-26T19:41:48.100Z,6.63
2022-07-26T19:44:18.409Z,5.25
2022-07-26T19:46:48.396Z,5.70
2022-07-26T19:49:17.930Z,7.03
2022-07-26T19:51:47.277Z,5.10
2022-07-26T19:54:16.571Z,4.10
2022-07-26T19:56:45.842Z,3.80
2022-07-26T19:59:20.979Z,4.60
2022-07-26T20:01:56.541Z,4.75
2022-07-26T20:04:27.915Z,4.68
2022-07-26T20:06:57.704Z,8.93
2022-07-26T20:09:27.093Z,4.97
2022-07-26T20:11:56.421Z,4.90
2022-07-26T20:14:25.670Z,5.13
2022-07-26T20:16:57.018Z,5.43
2022-07-26T20:19:29.929Z,5.03
2022-07-26T20:22:00.862Z,5.00
2022-07-26T20:24:30.205Z,7.43
2022-07-26T20:26:59.446Z,5.50
2022-07-26T20:29:28.726Z,5.82
2022-07-26T20:31:58.079Z,5.20
2022-07-26T20:34:27.369Z,9.30
2022-07-26T20:36:56.610Z,7.60
2022-07-26T20:39:27.962Z,5.68
2022-07-26T20:41:57.602Z,4.85
2022-07-26T20:44:28.634Z,5.97
2022-07-26T20:46:58.122Z,6.57
2022-07-26T20:49:27.410Z,6.22
2022-07-26T20:51:56.772Z,6.75
2022-07-26T20:54:26.141Z,6.43
2022-07-26T20:56:55.391Z,7.63
2022-07-26T20:59:24.784Z,5.60
2022-07-26T21:01:54.090Z,5.47
2022-07-26T21:04:23.355Z,4.80
2022-07-26T21:06:52.639Z,4.75
2022-07-26T21:09:21.890Z,4.23
2022-07-26T21:11:51.648Z,5.55
2022-07-26T21:14:20.915Z,3.97
2022-07-26T21:16:50.243Z,4.60
2022-07-26T21:19:19.614Z,8.25
2022-07-26T21:21:48.950Z,4.53
2022-07-26T21:24:18.977Z,4.20
2022-07-26T21:26:48.257Z,5.30
2022-07-26T21:29:17.602Z,5.97
2022-07-26T21:31:46.896Z,4.28
2022-07-26T21:34:16.653Z,5.77
2022-07-26T21:36:46.400Z,5.05
2022-07-26T21:39:15.729Z,4.47
2022-07-26T21:41:45.252Z,4.28
2022-07-26T21:44:14.502Z,3.60
2022-07-26T21:46:43.883Z,4.70
2022-07-26T21:49:13.701Z,4.25
2022-07-26T21:51:43.298Z,3.90
2022-07-26T21:54:12.684Z,5.35
2022-07-26T21:56:41.998Z,5.13
2022-07-26T21:59:11.574Z,3.63
2022-07-26T22:01:41.213Z,3.75
2022-07-26T22:04:10.766Z,6.20
2022-07-26T22:06:40.541Z,10.35
2022-07-26T22:09:10.023Z,2.22
2022-07-26T22:11:39.541Z,4.63
2022-07-26T22:14:10.186Z,4.18
2022-07-26T22:16:39.512Z,6.45
2022-07-26T22:19:09.068Z,3.67
2022-07-26T22:21:38.648Z,4.82
2022-07-26T22:24:08.449Z,5.73
2022-07-26T22:26:37.747Z,4.85
2022-07-26T22:29:09.240Z,4.88
2022-07-26T22:31:39.007Z,3.35
2022-07-26T22:34:08.325Z,3.75
2022-07-26T22:36:43.474Z,2.90
2022-07-26T22:39:15.139Z,3.47
2022-07-26T22:42:12.627Z,2.83
2022-07-26T22:44:34.946Z,2.70
2022-07-26T22:47:04.289Z,3.60
2022-07-26T22:49:33.629Z,3.40
2022-07-26T22:52:03.007Z,3.50
2022-07-26T22:54:32.444Z,2.92
2022-07-26T22:57:01.828Z,2.90
2022-07-26T22:59:31.153Z,3.45
2022-07-26T23:02:01.268Z,3.87
2022-07-26T23:04:30.518Z,3.05
2022-07-26T23:07:00.388Z,3.25
2022-07-26T23:09:30.748Z,3.50
2022-07-26T23:12:00.168Z,3.38
2022-07-26T23:14:29.648Z,2.90
2022-07-26T23:16:58.973Z,2.88
2022-07-26T23:19:28.416Z,2.83
2022-07-26T23:21:57.645Z,3.35
2022-07-26T23:24:26.962Z,3.85
2022-07-26T23:26:56.199Z,3.30
2022-07-26T23:29:25.553Z,3.00
2022-07-26T23:31:55.035Z,3.30
2022-07-26T23:34:24.561Z,5.75
2022-07-26T23:36:54.118Z,5.00
2022-07-26T23:39:23.386Z,4.27
2022-07-26T23:41:52.661Z,6.93
2022-07-26T23:44:21.896Z,4.68
2022-07-26T23:46:51.266Z,4.00
2022-07-26T23:49:20.597Z,5.32
2022-07-26T23:51:49.863Z,5.20
2022-07-26T23:54:19.207Z,4.40
2022-07-26T23:56:48.499Z,3.50
2022-07-26T23:59:17.845Z,3.53
